Time;durP1;ratioP1;P1;durP2;ratioP2;P2;SDS_P1;SDS_P2;PMS_P1;PMS_P2;Temp;Humidity;BMP_temperature;BMP_pressure;BME280_temperature;BME280_humidity;BME280_pressure;Samples;Min_cycle;Max_cycle;Signal;HPM_P1;HPM_P2
2020/12/08 00:00:45;;;;;;;5.93;3.40;;;2.70;97.60;;;;;;5056103;28;20271;-71
2020/12/08 00:03:11;;;;;;;3.47;3.17;;;2.60;97.00;;;;;;5056266;28;20181;-71
2020/12/08 00:05:37;;;;;;;5.77;3.53;;;2.40;96.50;;;;;;5055783;28;20664;-71
2020/12/08 00:08:05;;;;;;;4.60;3.93;;;2.20;96.90;;;;;;5056037;28;20171;-71
2020/12/08 00:10:31;;;;;;;4.25;3.85;;;2.30;97.10;;;;;;5055844;28;20249;-71
2020/12/08 00:12:56;;;;;;;4.27;3.87;;;2.30;96.70;;;;;;5055946;28;20166;-71
2020/12/08 00:15:22;;;;;;;4.47;3.67;;;2.40;96.70;;;;;;5056021;28;20664;-71
2020/12/08 00:17:48;;;;;;;5.90;3.27;;;2.40;96.50;;;;;;5055982;28;20167;-71
2020/12/08 00:20:16;;;;;;;5.00;3.53;;;2.50;96.70;;;;;;5055721;28;20223;-71
2020/12/08 00:22:42;;;;;;;2.97;2.75;;;2.50;96.70;;;;;;5055711;28;20241;-71
2020/12/08 00:25:08;;;;;;;6.10;3.60;;;2.50;96.80;;;;;;5055351;28;20225;-71
2020/12/08 00:27:37;;;;;;;4.57;3.00;;;2.40;97.10;;;;;;5055873;28;20631;-71
2020/12/08 00:30:22;;;;;;;5.15;3.60;;;2.20;97.10;;;;;;5055556;28;20217;-71
2020/12/08 00:32:48;;;;;;;2.72;2.53;;;2.50;97.30;;;;;;5055576;28;20152;-71
2020/12/08 00:35:14;;;;;;;4.07;3.67;;;2.40;97.70;;;;;;5055570;28;20181;-71
2020/12/08 00:37:46;;;;;;;5.68;4.10;;;2.40;98.00;;;;;;5055418;28;20173;-71
2020/12/08 00:40:12;;;;;;;4.72;3.05;;;2.40;97.70;;;;;;5055273;28;20285;-71
2020/12/08 00:42:39;;;;;;;4.63;3.60;;;2.60;97.40;;;;;;5055519;28;20253;-71
2020/12/08 00:45:09;;;;;;;2.55;2.30;;;2.40;97.60;;;;;;5055307;28;20269;-71
2020/12/08 00:47:36;;;;;;;4.32;3.47;;;2.40;97.90;;;;;;5055249;28;20618;-71
2020/12/08 00:50:02;;;;;;;4.68;2.95;;;2.30;97.50;;;;;;5055113;28;20572;-71
2020/12/08 00:52:28;;;;;;;5.10;3.55;;;2.30;97.70;;;;;;5055227;28;20250;-71
2020/12/08 00:54:54;;;;;;;5.33;3.37;;;2.30;97.90;;;;;;5055068;28;20255;-71
2020/12/08 00:57:23;;;;;;;3.83;3.40;;;2.50;97.60;;;;;;5055688;28;20163;-71
2020/12/08 00:59:49;;;;;;;3.33;3.03;;;2.50;97.60;;;;;;5054871;28;20191;-71
2020/12/08 01:02:16;;;;;;;4.55;3.30;;;2.60;97.20;;;;;;5055461;28;20174;-71
2020/12/08 01:04:43;;;;;;;3.67;3.25;;;2.70;97.40;;;;;;5054820;28;20180;-71
2020/12/08 01:07:08;;;;;;;4.35;3.58;;;2.60;97.40;;;;;;5054519;28;20173;-71
2020/12/08 01:09:35;;;;;;;4.10;2.80;;;2.70;97.60;;;;;;5054881;28;20524;-71
2020/12/08 01:12:00;;;;;;;3.50;2.60;;;2.80;97.40;;;;;;5054729;28;20448;-71
2020/12/08 01:14:26;;;;;;;2.80;2.50;;;2.80;97.70;;;;;;5054832;28;20171;-71
2020/12/08 01:16:52;;;;;;;2.50;2.30;;;2.80;97.30;;;;;;5054475;28;20177;-71
2020/12/08 01:19:18;;;;;;;3.13;2.60;;;2.90;97.30;;;;;;5054919;28;20188;-71
2020/12/08 01:21:43;;;;;;;4.95;3.65;;;2.90;97.30;;;;;;5054926;28;20178;-71
2020/12/08 01:24:09;;;;;;;3.60;3.30;;;2.90;97.30;;;;;;5054668;28;20565;-71
2020/12/08 01:26:34;;;;;;;2.77;2.57;;;2.90;97.30;;;;;;5054298;28;20664;-71
2020/12/08 01:29:00;;;;;;;2.43;2.23;;;3.00;97.40;;;;;;5054615;28;20171;-71
2020/12/08 01:31:32;;;;;;;2.70;2.03;;;3.10;97.40;;;;;;5054322;28;20200;-71
2020/12/08 01:33:58;;;;;;;2.70;2.50;;;3.20;97.30;;;;;;5054666;28;20615;-71
2020/12/08 01:36:23;;;;;;;3.77;2.60;;;3.10;97.10;;;;;;5054310;28;20167;-71
2020/12/08 01:38:49;;;;;;;4.00;3.10;;;3.00;97.30;;;;;;5054399;28;20958;-71
2020/12/08 01:41:15;;;;;;;4.30;3.27;;;3.00;97.40;;;;;;5054074;28;20204;-71
2020/12/08 01:43:50;;;;;;;4.47;2.80;;;2.90;97.30;;;;;;5054115;28;20168;-71
2020/12/08 01:46:24;;;;;;;3.47;3.17;;;3.10;97.20;;;;;;5054190;28;20258;-71
2020/12/08 01:48:51;;;;;;;3.92;3.50;;;3.20;96.80;;;;;;5054115;28;20172;-71
2020/12/08 01:51:17;;;;;;;2.92;2.45;;;3.20;96.50;;;;;;5054005;28;20224;-71
2020/12/08 01:53:46;;;;;;;2.60;2.40;;;3.30;96.60;;;;;;5054015;28;20186;-71
2020/12/08 01:56:12;;;;;;;2.03;1.90;;;3.20;96.70;;;;;;5053756;28;20181;-71
2020/12/08 01:58:38;;;;;;;3.92;3.00;;;3.20;96.90;;;;;;5053960;28;20169;-71
2020/12/08 02:01:04;;;;;;;8.40;2.80;;;3.00;97.10;;;;;;5053776;28;20246;-71
2020/12/08 02:03:30;;;;;;;3.45;2.90;;;3.10;97.20;;;;;;5053933;28;20173;-71
2020/12/08 02:05:56;;;;;;;3.17;2.90;;;3.10;97.10;;;;;;5053591;28;20174;-71
2020/12/08 02:08:33;;;;;;;2.73;2.40;;;3.10;96.90;;;;;;5053922;28;20180;-71
2020/12/08 02:10:59;;;;;;;2.95;2.65;;;3.10;97.00;;;;;;5053501;28;20470;-71
2020/12/08 02:13:25;;;;;;;3.70;2.85;;;3.10;97.10;;;;;;5053725;28;20173;-71
2020/12/08 02:15:51;;;;;;;1.70;1.60;;;3.20;97.00;;;;;;5052144;28;20263;-71
2020/12/08 02:18:18;;;;;;;2.85;2.65;;;3.20;96.90;;;;;;5053168;28;20173;-71
2020/12/08 02:20:44;;;;;;;3.72;2.17;;;3.20;96.70;;;;;;5053314;28;20222;-71
2020/12/08 02:23:10;;;;;;;3.20;2.30;;;3.10;96.70;;;;;;5052818;28;20184;-71
2020/12/08 02:25:36;;;;;;;2.75;2.40;;;3.20;96.60;;;;;;5052764;28;20489;-71
2020/12/08 02:28:03;;;;;;;2.20;2.00;;;3.10;96.70;;;;;;5053715;28;20176;-71
2020/12/08 02:30:29;;;;;;;2.80;2.60;;;3.10;96.60;;;;;;5053374;28;20211;-71
2020/12/08 02:32:55;;;;;;;2.63;2.43;;;3.10;96.20;;;;;;5053580;28;20637;-71
2020/12/08 02:35:21;;;;;;;1.70;1.60;;;3.10;96.10;;;;;;5053345;28;20168;-71
2020/12/08 02:37:47;;;;;;;2.35;2.03;;;3.00;96.10;;;;;;5053519;28;20168;-71
2020/12/08 02:40:12;;;;;;;2.20;2.00;;;2.80;96.30;;;;;;5053273;28;20248;-71
2020/12/08 02:42:38;;;;;;;2.30;2.10;;;2.70;96.60;;;;;;5053380;28;20554;-71
2020/12/08 02:45:04;;;;;;;2.40;2.13;;;2.50;97.00;;;;;;5053194;28;20253;-71
2020/12/08 02:47:30;;;;;;;1.60;1.43;;;2.60;97.30;;;;;;5053505;28;20175;-71
2020/12/08 02:49:55;;;;;;;2.35;1.77;;;2.70;97.30;;;;;;5053268;28;20461;-71
2020/12/08 02:52:22;;;;;;;3.40;1.97;;;2.70;97.30;;;;;;5053132;28;20629;-71
2020/12/08 02:54:48;;;;;;;3.65;2.40;;;2.70;97.10;;;;;;5053077;28;20209;-71
2020/12/08 02:57:15;;;;;;;3.35;3.05;;;2.60;97.30;;;;;;5053178;28;20180;-71
2020/12/08 02:59:40;;;;;;;2.50;2.00;;;2.40;97.70;;;;;;5051740;28;20664;-71
2020/12/08 03:02:06;;;;;;;2.00;1.80;;;2.30;97.90;;;;;;5053272;28;20186;-71
2020/12/08 03:04:31;;;;;;;2.50;2.30;;;2.40;97.90;;;;;;5053284;28;20180;-71
2020/12/08 03:06:57;;;;;;;2.10;1.80;;;2.40;97.70;;;;;;5053108;28;20607;-71
2020/12/08 03:09:23;;;;;;;5.83;3.43;;;2.50;97.90;;;;;;5053022;28;20206;-71
2020/12/08 03:11:48;;;;;;;3.77;3.40;;;2.60;97.80;;;;;;5053020;28;20295;-71
2020/12/08 03:14:14;;;;;;;7.23;3.60;;;2.60;97.50;;;;;;5053106;28;20258;-71
2020/12/08 03:16:40;;;;;;;5.50;3.40;;;2.60;97.60;;;;;;5052885;28;20177;-71
2020/12/08 03:19:05;;;;;;;4.27;3.67;;;2.80;97.50;;;;;;5053052;28;20191;-71
2020/12/08 03:21:35;;;;;;;2.60;2.40;;;2.80;97.20;;;;;;5053149;28;20267;-71
2020/12/08 03:24:01;;;;;;;4.15;3.30;;;2.90;97.00;;;;;;5053007;28;20195;-71
2020/12/08 03:26:27;;;;;;;3.83;2.70;;;3.00;96.80;;;;;;5052729;28;20191;-71
2020/12/08 03:28:54;;;;;;;1.50;1.43;;;2.90;96.80;;;;;;5053042;28;20413;-71
2020/12/08 03:31:20;;;;;;;3.47;2.28;;;2.90;96.90;;;;;;5054440;28;20203;-71
2020/12/08 03:33:46;;;;;;;1.60;1.50;;;3.00;96.90;;;;;;5056701;28;20175;-71
2020/12/08 03:36:18;;;;;;;2.00;1.80;;;3.00;96.60;;;;;;5056397;28;20167;-71
2020/12/08 03:38:45;;;;;;;5.72;3.30;;;3.00;96.60;;;;;;5056566;28;20164;-71
2020/12/08 03:41:16;;;;;;;3.53;2.67;;;2.80;96.60;;;;;;5056560;28;20524;-71
2020/12/08 03:43:42;;;;;;;2.58;2.03;;;2.90;96.90;;;;;;5056540;28;20172;-71
2020/12/08 03:46:07;;;;;;;3.83;2.17;;;2.70;96.80;;;;;;5056235;28;20193;-71
2020/12/08 03:48:33;;;;;;;4.20;2.23;;;2.70;96.80;;;;;;5056559;28;20176;-71
2020/12/08 03:50:58;;;;;;;8.70;1.87;;;2.80;96.70;;;;;;5056176;28;20202;-71
2020/12/08 03:53:24;;;;;;;2.40;2.10;;;2.80;96.70;;;;;;5056346;28;20521;-71
2020/12/08 03:55:50;;;;;;;1.53;1.37;;;2.80;96.80;;;;;;5055974;28;20167;-71
2020/12/08 03:58:15;;;;;;;2.00;1.90;;;2.70;96.90;;;;;;5056449;28;20165;-71
2020/12/08 04:00:42;;;;;;;3.20;2.10;;;2.60;97.30;;;;;;5056274;28;20196;-71
2020/12/08 04:03:08;;;;;;;4.22;1.88;;;2.50;97.50;;;;;;5056100;28;20176;-71
2020/12/08 04:05:34;;;;;;;3.60;3.28;;;2.60;97.60;;;;;;5055726;28;20191;-71
2020/12/08 04:07:59;;;;;;;3.40;1.80;;;2.60;97.60;;;;;;5056000;28;20171;-71
2020/12/08 04:10:25;;;;;;;1.13;1.10;;;2.80;97.40;;;;;;5055843;28;20197;-71
2020/12/08 04:12:50;;;;;;;5.00;1.93;;;2.70;97.20;;;;;;5056112;28;20187;-71
2020/12/08 04:15:16;;;;;;;1.80;1.07;;;2.60;97.10;;;;;;5055932;28;20217;-71
2020/12/08 04:17:42;;;;;;;2.47;1.53;;;2.60;97.20;;;;;;5055793;28;20178;-71
2020/12/08 04:20:07;;;;;;;2.33;1.63;;;2.50;97.30;;;;;;5056246;28;20220;-71
2020/12/08 04:22:34;;;;;;;2.57;1.53;;;2.50;97.30;;;;;;5055825;28;20221;-71
2020/12/08 04:24:59;;;;;;;1.60;1.20;;;2.50;97.20;;;;;;5055317;28;20191;-71
2020/12/08 04:27:25;;;;;;;2.47;2.20;;;2.60;97.10;;;;;;5055820;28;20171;-71
2020/12/08 04:29:50;;;;;;;1.90;1.77;;;2.70;97.10;;;;;;5055500;28;20191;-71
2020/12/08 04:32:16;;;;;;;3.40;2.50;;;2.60;97.00;;;;;;5055787;28;20163;-71
2020/12/08 04:34:41;;;;;;;1.70;1.60;;;2.60;97.10;;;;;;5055368;28;20174;-71
2020/12/08 04:37:08;;;;;;;1.73;1.13;;;2.70;97.10;;;;;;5055519;28;20630;-71
2020/12/08 04:39:34;;;;;;;1.40;1.20;;;2.60;97.10;;;;;;5055363;28;20707;-71
2020/12/08 04:42:00;;;;;;;1.85;1.75;;;2.70;97.10;;;;;;5054675;28;20182;-71
2020/12/08 04:44:26;;;;;;;2.07;1.80;;;2.80;96.90;;;;;;5055413;28;20635;-71
2020/12/08 04:46:56;;;;;;;2.30;2.10;;;2.80;96.80;;;;;;5055225;28;20640;-71
2020/12/08 04:49:22;;;;;;;1.60;1.42;;;2.90;96.90;;;;;;5055263;28;20449;-71
2020/12/08 04:51:48;;;;;;;1.85;1.52;;;2.90;97.10;;;;;;5055350;28;20210;-71
2020/12/08 04:54:14;;;;;;;1.17;1.10;;;2.90;96.70;;;;;;5055570;28;20168;-71
2020/12/08 04:56:43;;;;;;;2.60;1.60;;;2.90;96.70;;;;;;5055085;28;20162;-71
2020/12/08 04:59:21;;;;;;;1.55;1.45;;;2.80;96.60;;;;;;5054916;28;20210;-71
2020/12/08 05:01:48;;;;;;;1.33;1.15;;;2.80;96.70;;;;;;5055190;28;20497;-71
2020/12/08 05:04:22;;;;;;;3.67;2.30;;;2.80;96.80;;;;;;5055162;28;20177;-71
2020/12/08 05:07:07;;;;;;;1.50;1.30;;;2.80;96.90;;;;;;5054738;28;20180;-71
2020/12/08 05:09:43;;;;;;;1.10;1.10;;;2.70;96.90;;;;;;5054972;28;20196;-71
2020/12/08 05:12:09;;;;;;;1.60;1.38;;;2.60;96.80;;;;;;5055152;28;20201;-71
2020/12/08 05:14:41;;;;;;;1.70;1.60;;;2.40;96.60;;;;;;5054807;28;20196;-71
2020/12/08 05:17:07;;;;;;;1.42;1.33;;;2.40;96.70;;;;;;5054807;28;20627;-71
2020/12/08 05:19:33;;;;;;;2.13;1.20;;;2.20;96.70;;;;;;5054587;28;20244;-71
2020/12/08 05:21:59;;;;;;;2.43;1.47;;;2.00;97.10;;;;;;5054708;28;20194;-71
2020/12/08 05:24:33;;;;;;;1.53;0.90;;;2.10;97.20;;;;;;5054331;28;20202;-71
2020/12/08 05:27:04;;;;;;;1.35;1.25;;;2.10;97.20;;;;;;5054408;28;20170;-71
2020/12/08 05:29:31;;;;;;;1.73;1.63;;;2.00;97.10;;;;;;5054330;28;20194;-71
2020/12/08 05:31:57;;;;;;;1.20;1.05;;;2.00;97.50;;;;;;5054318;28;20653;-71
2020/12/08 05:34:24;;;;;;;1.10;0.80;;;1.90;97.10;;;;;;5054548;28;20541;-71
2020/12/08 05:36:53;;;;;;;0.90;0.80;;;1.80;97.00;;;;;;5054306;28;20563;-71
2020/12/08 05:39:21;;;;;;;1.33;1.23;;;1.80;97.00;;;;;;5054219;28;20190;-71
2020/12/08 05:41:51;;;;;;;1.52;1.38;;;1.60;97.20;;;;;;5054299;28;20177;-71
2020/12/08 05:44:25;;;;;;;1.08;1.00;;;1.50;97.40;;;;;;5054102;28;20174;-71
2020/12/08 05:46:52;;;;;;;1.23;1.10;;;1.50;97.50;;;;;;5054054;28;20204;-71
2020/12/08 05:49:19;;;;;;;0.90;0.90;;;1.40;97.60;;;;;;5054043;28;20198;-71
2020/12/08 05:51:50;;;;;;;1.10;0.80;;;1.40;97.60;;;;;;5054004;28;20284;-71
2020/12/08 05:54:20;;;;;;;2.25;1.70;;;1.30;97.40;;;;;;5054019;28;20166;-71
2020/12/08 05:56:50;;;;;;;1.65;1.50;;;1.30;97.70;;;;;;5054239;28;20570;-71
2020/12/08 05:59:29;;;;;;;1.05;0.95;;;1.30;97.80;;;;;;5054043;28;20193;-71
2020/12/08 06:01:55;;;;;;;1.10;1.00;;;1.20;98.00;;;;;;5053828;28;20639;-71
2020/12/08 06:04:21;;;;;;;1.75;1.65;;;1.20;98.00;;;;;;5053867;28;20174;-71
2020/12/08 06:06:52;;;;;;;2.20;1.58;;;1.20;98.00;;;;;;5053703;28;20202;-71
2020/12/08 06:09:25;;;;;;;1.45;1.05;;;1.10;98.10;;;;;;5053808;28;20225;-71
2020/12/08 06:11:52;;;;;;;0.73;0.73;;;1.10;98.10;;;;;;5053798;28;20222;-71
2020/12/08 06:14:32;;;;;;;2.72;1.27;;;1.00;98.20;;;;;;5053823;28;20171;-71
2020/12/08 06:17:00;;;;;;;1.17;1.08;;;1.10;98.10;;;;;;5053546;28;20196;-71
2020/12/08 06:19:25;;;;;;;1.55;1.45;;;1.00;98.20;;;;;;5053633;28;20643;-71
2020/12/08 06:21:51;;;;;;;1.30;1.07;;;0.90;98.10;;;;;;5053582;28;20177;-71
2020/12/08 06:24:17;;;;;;;1.53;0.87;;;0.90;98.10;;;;;;5053422;28;20190;-71
2020/12/08 06:26:42;;;;;;;0.70;0.70;;;0.70;98.10;;;;;;5053563;28;20189;-71
2020/12/08 06:29:12;;;;;;;1.80;1.37;;;0.70;97.70;;;;;;5053443;28;20443;-71
2020/12/08 06:31:45;;;;;;;0.73;0.73;;;0.50;97.80;;;;;;5053482;28;20601;-71
2020/12/08 06:34:23;;;;;;;1.13;1.13;;;0.30;98.70;;;;;;5053454;28;20599;-71
2020/12/08 06:36:48;;;;;;;0.70;0.70;;;0.30;98.80;;;;;;5053400;28;20162;-71
2020/12/08 06:39:14;;;;;;;1.60;1.50;;;0.40;98.60;;;;;;5053404;28;20197;-71
2020/12/08 06:41:42;;;;;;;1.10;1.00;;;0.50;98.30;;;;;;5053515;28;20174;-71
2020/12/08 06:44:16;;;;;;;0.65;0.65;;;0.50;98.20;;;;;;5053317;28;20173;-71
2020/12/08 06:47:00;;;;;;;1.02;1.02;;;0.50;98.00;;;;;;5053080;28;20186;-71
2020/12/08 06:49:46;;;;;;;0.75;0.75;;;0.40;98.00;;;;;;5053402;28;20268;-71
2020/12/08 06:52:12;;;;;;;2.55;1.33;;;0.40;97.80;;;;;;5053164;28;20212;-71
2020/12/08 06:54:37;;;;;;;1.60;1.20;;;0.30;98.00;;;;;;5053251;28;20170;-71
2020/12/08 06:57:05;;;;;;;2.93;1.47;;;0.30;98.10;;;;;;5053113;28;20636;-71
2020/12/08 06:59:30;;;;;;;10.40;3.60;;;0.30;98.00;;;;;;5051871;28;20197;-71
2020/12/08 07:01:57;;;;;;;3.20;2.30;;;0.30;98.10;;;;;;5053139;28;20170;-71
2020/12/08 07:04:25;;;;;;;1.35;1.25;;;0.30;98.10;;;;;;5053331;28;20249;-71
2020/12/08 07:06:51;;;;;;;1.85;1.33;;;0.30;98.10;;;;;;5057003;28;20658;-71
2020/12/08 07:09:17;;;;;;;1.50;1.40;;;0.30;98.30;;;;;;5057109;28;20194;-71
2020/12/08 07:11:43;;;;;;;2.45;2.05;;;0.40;98.30;;;;;;5057157;28;20453;-71
2020/12/08 07:14:09;;;;;;;1.13;0.87;;;0.30;98.20;;;;;;5057189;28;20223;-71
2020/12/08 07:16:35;;;;;;;1.33;1.23;;;0.20;98.40;;;;;;5056838;28;20400;-71
2020/12/08 07:19:03;;;;;;;1.48;1.38;;;0.20;98.30;;;;;;5057091;28;20801;-71
2020/12/08 07:21:29;;;;;;;2.92;1.67;;;0.10;98.40;;;;;;5056936;28;20509;-71
2020/12/08 07:23:55;;;;;;;2.70;2.27;;;0.20;98.40;;;;;;5056847;28;20220;-71
2020/12/08 07:26:24;;;;;;;2.55;1.15;;;0.20;98.10;;;;;;5056808;28;20166;-71
2020/12/08 07:28:53;;;;;;;1.65;1.25;;;0.20;97.70;;;;;;5056939;28;20178;-71
2020/12/08 07:31:24;;;;;;;1.48;1.38;;;0.10;98.00;;;;;;5057414;28;20201;-71
2020/12/08 07:33:50;;;;;;;1.40;1.30;;;0.00;98.50;;;;;;5056934;28;20174;-71
2020/12/08 07:36:33;;;;;;;2.25;1.45;;;0.00;99.00;;;;;;5056485;28;20169;-71
2020/12/08 07:39:02;;;;;;;3.35;1.80;;;0.10;99.00;;;;;;5056537;28;20170;-71
2020/12/08 07:41:30;;;;;;;1.67;1.20;;;0.20;98.90;;;;;;5056593;28;20199;-71
2020/12/08 07:43:57;;;;;;;4.80;2.42;;;0.20;98.80;;;;;;5056777;28;20649;-71
2020/12/08 07:46:30;;;;;;;1.20;0.93;;;0.40;98.70;;;;;;5056351;28;20256;-71
2020/12/08 07:49:10;;;;;;;5.43;2.83;;;0.40;98.40;;;;;;5056969;28;20182;-71
2020/12/08 07:51:37;;;;;;;3.55;2.30;;;0.50;98.00;;;;;;5056031;28;20208;-71
2020/12/08 07:54:05;;;;;;;1.92;1.60;;;0.50;97.60;;;;;;5055246;28;20253;-71
2020/12/08 07:56:32;;;;;;;2.47;1.77;;;0.50;97.30;;;;;;5056123;28;20281;-71
2020/12/08 07:58:58;;;;;;;2.17;1.58;;;0.40;97.10;;;;;;5056196;28;20233;-71
2020/12/08 08:01:25;;;;;;;1.70;1.60;;;0.50;97.30;;;;;;5056225;28;20194;-71
2020/12/08 08:03:51;;;;;;;4.18;3.50;;;0.60;97.50;;;;;;5056245;28;20668;-71
2020/12/08 08:06:19;;;;;;;10.17;5.13;;;0.80;97.90;;;;;;5055931;28;20181;-71
2020/12/08 08:08:46;;;;;;;7.50;4.88;;;1.30;98.20;;;;;;5056209;28;20898;-71
2020/12/08 08:11:11;;;;;;;4.75;4.35;;;2.10;96.70;;;;;;5055941;28;20585;-71
2020/12/08 08:13:37;;;;;;;2.27;2.00;;;3.20;95.00;;;;;;5055979;28;20163;-71
2020/12/08 08:16:03;;;;;;;5.07;4.63;;;4.20;93.10;;;;;;5055228;28;20175;-71
2020/12/08 08:18:31;;;;;;;4.30;3.47;;;5.00;90.80;;;;;;5055379;28;20165;-71
2020/12/08 08:21:00;;;;;;;4.05;3.20;;;5.60;87.90;;;;;;5055710;28;20683;-71
2020/12/08 08:23:26;;;;;;;2.55;2.35;;;6.50;85.70;;;;;;5055575;28;20197;-71
2020/12/08 08:25:52;;;;;;;2.13;1.97;;;7.30;82.30;;;;;;5055529;28;20166;-71
2020/12/08 08:28:19;;;;;;;3.80;3.30;;;7.70;79.50;;;;;;5055718;28;20409;-71
2020/12/08 08:30:44;;;;;;;6.43;5.80;;;7.70;78.60;;;;;;5055446;28;20551;-71
2020/12/08 08:33:10;;;;;;;6.67;5.80;;;7.50;77.60;;;;;;5055712;28;20245;-71
2020/12/08 08:35:35;;;;;;;7.63;4.40;;;7.50;76.70;;;;;;5055340;28;20555;-71
2020/12/08 08:38:01;;;;;;;5.70;5.00;;;8.10;75.90;;;;;;5055571;28;20167;-71
2020/12/08 08:40:27;;;;;;;8.33;7.00;;;8.90;73.70;;;;;;5055557;28;20567;-71
2020/12/08 08:42:55;;;;;;;7.90;6.87;;;10.00;67.40;;;;;;5055477;28;20174;-71
2020/12/08 08:45:21;;;;;;;6.45;5.80;;;11.10;61.80;;;;;;5055266;28;20256;-71
2020/12/08 08:47:47;;;;;;;3.13;2.83;;;12.00;58.40;;;;;;5055452;28;20257;-71
2020/12/08 08:50:12;;;;;;;4.23;3.40;;;12.30;56.00;;;;;;5055058;28;20336;-71
2020/12/08 08:52:38;;;;;;;2.67;2.47;;;12.30;56.00;;;;;;5055411;28;20166;-71
2020/12/08 08:55:03;;;;;;;1.60;1.50;;;13.00;55.90;;;;;;5055032;28;20163;-72
2020/12/08 08:57:29;;;;;;;9.57;8.00;;;13.90;54.10;;;;;;5055289;28;20166;-72
2020/12/08 08:59:55;;;;;;;10.00;5.87;;;15.10;51.90;;;;;;5055066;28;20182;-72
2020/12/08 09:02:20;;;;;;;9.70;8.53;;;15.90;46.80;;;;;;5055046;28;20185;-72
2020/12/08 09:04:46;;;;;;;9.67;7.00;;;16.00;44.90;;;;;;5054963;28;20657;-72
2020/12/08 09:07:11;;;;;;;6.07;4.97;;;15.90;45.10;;;;;;5055017;28;20180;-72
2020/12/08 09:09:37;;;;;;;3.00;2.60;;;16.30;44.40;;;;;;5054838;28;20194;-72
2020/12/08 09:12:03;;;;;;;4.60;3.93;;;16.90;43.80;;;;;;5054835;28;20201;-72
2020/12/08 09:14:30;;;;;;;2.73;2.53;;;17.50;42.10;;;;;;5055010;28;20256;-70
2020/12/08 09:16:56;;;;;;;4.17;3.77;;;17.90;40.40;;;;;;5054601;28;20401;-72
2020/12/08 09:19:22;;;;;;;3.40;3.10;;;18.00;40.40;;;;;;5054750;28;20827;-71
2020/12/08 09:21:53;;;;;;;4.10;3.70;;;18.00;40.60;;;;;;5054421;28;20166;-72
2020/12/08 09:24:19;;;;;;;4.53;3.70;;;18.10;40.60;;;;;;5054503;28;20439;-72
2020/12/08 09:26:45;;;;;;;6.20;5.10;;;18.20;39.60;;;;;;5053794;28;20408;-72
2020/12/08 09:29:10;;;;;;;3.23;2.77;;;18.30;39.60;;;;;;5053311;28;20482;-72
2020/12/08 09:31:36;;;;;;;2.40;2.20;;;18.50;39.00;;;;;;5054338;28;20281;-72
2020/12/08 09:34:04;;;;;;;3.80;3.50;;;18.50;38.80;;;;;;5054353;28;20230;-72
2020/12/08 09:36:30;;;;;;;2.90;2.70;;;18.70;39.40;;;;;;5054209;28;20808;-72
2020/12/08 09:38:55;;;;;;;3.23;2.23;;;17.80;38.50;;;;;;5054189;28;20491;-71
2020/12/08 09:41:21;;;;;;;3.33;2.10;;;17.50;39.30;;;;;;5054334;28;20428;-72
2020/12/08 09:43:47;;;;;;;1.87;1.77;;;17.60;40.30;;;;;;5054505;28;20198;-72
2020/12/08 09:46:13;;;;;;;2.13;2.03;;;17.50;39.40;;;;;;5054555;28;20205;-71
2020/12/08 09:48:38;;;;;;;1.30;1.20;;;17.50;40.30;;;;;;5054532;28;20695;-72
2020/12/08 09:51:04;;;;;;;2.03;1.83;;;17.90;39.30;;;;;;5053933;28;20500;-72
2020/12/08 09:53:30;;;;;;;3.10;1.70;;;18.10;39.70;;;;;;5054162;28;20170;-71
2020/12/08 09:55:56;;;;;;;3.07;2.60;;;18.00;40.30;;;;;;5054090;28;20525;-72
2020/12/08 09:58:21;;;;;;;2.60;1.80;;;18.40;40.20;;;;;;5054082;28;20491;-71
2020/12/08 10:00:47;;;;;;;3.30;3.00;;;18.60;39.80;;;;;;5053931;28;20198;-72
2020/12/08 10:03:12;;;;;;;3.83;2.70;;;18.60;39.20;;;;;;5054110;28;20261;-72
2020/12/08 10:05:38;;;;;;;1.70;1.60;;;18.50;38.90;;;;;;5053771;28;20177;-72
2020/12/08 10:08:04;;;;;;;2.50;1.97;;;18.70;39.50;;;;;;5053871;28;20185;-72
2020/12/08 10:10:30;;;;;;;2.80;2.43;;;18.80;39.60;;;;;;5053601;28;20199;-72
2020/12/08 10:12:55;;;;;;;2.10;2.00;;;18.80;39.70;;;;;;5053902;28;20211;-72
2020/12/08 10:15:21;;;;;;;22.03;10.10;;;18.80;40.40;;;;;;5053649;28;20632;-72
2020/12/08 10:17:47;;;;;;;7.57;4.30;;;18.70;39.30;;;;;;5053594;28;20203;-72
2020/12/08 10:20:13;;;;;;;7.50;3.83;;;18.50;39.70;;;;;;5053652;28;20181;-72
2020/12/08 10:22:39;;;;;;;10.17;4.33;;;18.40;39.80;;;;;;5053555;28;20416;-72
2020/12/08 10:25:05;;;;;;;5.73;3.77;;;18.30;40.10;;;;;;5053309;28;20432;-72
2020/12/08 10:27:30;;;;;;;5.23;3.67;;;17.90;40.40;;;;;;5053649;28;20628;-72
2020/12/08 10:29:56;;;;;;;3.37;2.90;;;17.60;41.00;;;;;;5053410;28;20425;-72
2020/12/08 10:32:22;;;;;;;6.10;3.30;;;17.30;41.00;;;;;;5053494;28;20202;-72
2020/12/08 10:34:48;;;;;;;3.50;3.20;;;17.10;42.00;;;;;;5053445;28;20261;-72
2020/12/08 10:37:14;;;;;;;4.63;2.50;;;16.90;42.40;;;;;;5053302;28;20440;-72
2020/12/08 10:39:39;;;;;;;4.00;3.33;;;16.60;42.70;;;;;;5052591;28;20248;-71
2020/12/08 10:42:05;;;;;;;1.70;1.60;;;16.40;42.40;;;;;;5053359;28;20184;-71
2020/12/08 10:44:30;;;;;;;5.33;3.70;;;16.10;43.60;;;;;;5053421;28;20638;-72
2020/12/08 10:46:56;;;;;;;6.80;5.20;;;15.70;43.90;;;;;;5053186;28;20174;-71
2020/12/08 10:49:22;;;;;;;3.07;2.53;;;15.20;44.30;;;;;;5053433;28;20215;-72
2020/12/08 10:51:48;;;;;;;4.17;3.00;;;14.70;45.70;;;;;;5053357;28;20206;-72
2020/12/08 10:54:14;;;;;;;3.47;3.20;;;14.10;47.20;;;;;;5053197;28;20416;-72
2020/12/08 10:56:40;;;;;;;4.00;2.50;;;13.60;48.40;;;;;;5053194;28;20408;-72
2020/12/08 10:59:06;;;;;;;2.40;2.20;;;13.20;49.30;;;;;;5053171;28;20190;-72
2020/12/08 11:01:31;;;;;;;1.53;1.13;;;12.60;51.00;;;;;;5053191;28;20261;-72
2020/12/08 11:03:57;;;;;;;1.77;1.67;;;12.10;52.10;;;;;;5053086;28;20174;-72
2020/12/08 11:06:27;;;;;;;1.27;1.17;;;11.60;52.80;;;;;;5053017;28;20169;-72
2020/12/08 11:08:57;;;;;;;1.83;1.73;;;11.00;53.80;;;;;;5052900;28;20169;-71
2020/12/08 11:11:27;;;;;;;1.08;1.02;;;10.60;55.50;;;;;;5053151;28;20568;-71
2020/12/08 11:13:54;;;;;;;2.10;1.52;;;10.10;57.00;;;;;;5051922;28;20700;-72
2020/12/08 11:16:21;;;;;;;2.40;1.70;;;10.00;58.30;;;;;;5052824;28;20564;-72
2020/12/08 11:18:47;;;;;;;1.17;1.10;;;9.80;59.50;;;;;;5052910;28;20565;-72
2020/12/08 11:21:13;;;;;;;1.15;1.05;;;9.70;60.10;;;;;;5052976;28;20227;-72
2020/12/08 11:23:40;;;;;;;1.17;1.08;;;9.70;60.40;;;;;;5052819;28;20561;-72
2020/12/08 11:26:12;;;;;;;0.65;0.65;;;9.60;60.40;;;;;;5052917;28;20177;-72
2020/12/08 11:28:39;;;;;;;1.08;0.65;;;9.50;60.60;;;;;;5053072;28;20255;-72
2020/12/08 11:31:05;;;;;;;5.13;0.98;;;9.50;61.60;;;;;;5052734;28;20669;-72
2020/12/08 11:33:31;;;;;;;1.00;0.75;;;9.30;62.40;;;;;;5052901;28;20166;-72
2020/12/08 11:35:57;;;;;;;1.20;1.10;;;9.10;62.80;;;;;;5052636;28;20539;-72
2020/12/08 11:38:23;;;;;;;2.63;1.20;;;8.90;63.50;;;;;;5052893;28;20177;-72
2020/12/08 11:40:49;;;;;;;2.23;1.20;;;8.80;65.00;;;;;;5052765;28;20431;-72
2020/12/08 11:43:14;;;;;;;1.83;0.97;;;8.50;65.80;;;;;;5052915;28;20435;-72
2020/12/08 11:45:40;;;;;;;1.63;1.20;;;8.30;66.90;;;;;;5052642;28;20903;-73
2020/12/08 11:48:06;;;;;;;1.60;1.50;;;8.00;67.80;;;;;;5052792;28;20170;-72
2020/12/08 11:50:31;;;;;;;0.93;0.93;;;7.50;70.00;;;;;;5052666;28;20648;-72
2020/12/08 11:52:57;;;;;;;1.03;0.80;;;7.20;73.00;;;;;;5056381;28;20200;-72
2020/12/08 11:55:23;;;;;;;3.27;1.73;;;7.20;74.20;;;;;;5056060;28;20179;-72
2020/12/08 11:57:48;;;;;;;3.13;1.40;;;7.30;75.50;;;;;;5056381;28;20170;-72
2020/12/08 12:00:14;;;;;;;1.50;1.40;;;7.20;75.90;;;;;;5056180;28;20191;-72
2020/12/08 12:02:40;;;;;;;1.83;1.60;;;7.10;77.10;;;;;;5056254;28;20170;-72
2020/12/08 12:05:06;;;;;;;2.63;2.43;;;7.00;78.20;;;;;;5055988;28;20400;-72
2020/12/08 12:07:32;;;;;;;3.50;1.85;;;7.00;80.30;;;;;;5056185;28;20178;-72
2020/12/08 12:09:57;;;;;;;4.43;1.93;;;7.00;81.50;;;;;;5056224;28;20194;-72
2020/12/08 12:12:23;;;;;;;1.43;1.33;;;6.60;83.10;;;;;;5055846;28;20190;-72
2020/12/08 12:14:48;;;;;;;2.53;1.40;;;6.30;85.70;;;;;;5055874;28;20166;-72
2020/12/08 12:17:14;;;;;;;1.13;1.00;;;6.40;87.80;;;;;;5055865;28;20167;-72
2020/12/08 12:19:40;;;;;;;1.50;1.40;;;6.30;88.00;;;;;;5055846;28;20267;-72
2020/12/08 12:22:05;;;;;;;1.93;1.83;;;6.30;88.70;;;;;;5055849;28;20166;-72
2020/12/08 12:24:31;;;;;;;3.50;3.20;;;6.30;90.00;;;;;;5055812;28;20196;-72
2020/12/08 12:26:57;;;;;;;8.30;5.87;;;6.20;90.40;;;;;;5055702;28;20169;-72
2020/12/08 12:29:23;;;;;;;8.48;6.82;;;6.20;90.70;;;;;;5055867;28;20236;-72
2020/12/08 12:31:48;;;;;;;10.67;7.60;;;6.10;90.90;;;;;;5055564;28;20281;-72
2020/12/08 12:34:14;;;;;;;9.83;6.97;;;5.90;91.20;;;;;;5055655;28;20169;-71
2020/12/08 12:36:41;;;;;;;9.63;7.53;;;5.30;91.80;;;;;;5055650;28;20656;-72
2020/12/08 12:39:07;;;;;;;11.15;7.70;;;4.90;93.00;;;;;;5055390;28;20276;-72
2020/12/08 12:41:33;;;;;;;11.63;8.30;;;4.60;94.40;;;;;;5055461;28;20166;-72
2020/12/08 12:43:59;;;;;;;20.20;8.82;;;4.50;95.40;;;;;;5054360;28;20190;-72
2020/12/08 12:46:26;;;;;;;11.45;7.68;;;4.40;95.80;;;;;;5055252;28;20181;-72
2020/12/08 12:48:51;;;;;;;12.88;8.45;;;4.30;96.40;;;;;;5055289;28;20180;-72
2020/12/08 12:51:27;;;;;;;16.97;11.97;;;4.40;96.50;;;;;;5055293;28;20283;-72
2020/12/08 12:53:54;;;;;;;12.07;9.00;;;4.40;96.50;;;;;;5054182;28;20409;-72